createdAt,value
2023-01-18T00:01:56.685Z,10.60
2023-01-18T00:04:26.738Z,11.33
2023-01-18T00:07:03.134Z,11.07
2023-01-18T00:09:31.598Z,11.60
2023-01-18T00:12:07.616Z,13.10
2023-01-18T00:14:40.459Z,11.40
2023-01-18T00:17:08.324Z,15.47
2023-01-18T00:19:40.967Z,13.43
2023-01-18T00:22:12.486Z,13.10
2023-01-18T00:24:43.062Z,13.63
2023-01-18T00:27:16.513Z,14.27
2023-01-18T00:29:48.628Z,12.63
2023-01-18T00:32:19.852Z,12.70
2023-01-18T00:34:58.738Z,14.40
2023-01-18T00:37:29.626Z,12.50
2023-01-18T00:40:03.756Z,14.50
2023-01-18T00:42:52.056Z,12.13
2023-01-18T00:45:19.990Z,12.30
2023-01-18T00:47:54.929Z,16.20
2023-01-18T00:50:29.106Z,11.30
2023-01-18T00:53:02.415Z,13.63
2023-01-18T00:55:30.505Z,15.67
2023-01-18T00:58:02.776Z,13.60
2023-01-18T01:00:46.971Z,12.23
2023-01-18T01:03:22.342Z,14.10
2023-01-18T01:06:08.239Z,12.47
2023-01-18T01:08:37.499Z,13.30
2023-01-18T01:11:17.951Z,14.10
2023-01-18T01:14:04.791Z,11.60
2023-01-18T01:16:51.378Z,11.80
2023-01-18T01:19:39.081Z,15.27
2023-01-18T01:22:26.318Z,11.47
2023-01-18T01:25:16.059Z,12.87
2023-01-18T01:27:47.300Z,13.77
2023-01-18T01:30:17.767Z,12.07
2023-01-18T01:32:52.697Z,13.83
2023-01-18T01:35:23.392Z,11.47
2023-01-18T01:37:57.100Z,12.23
2023-01-18T01:40:30.991Z,11.50
2023-01-18T01:43:01.448Z,15.77
2023-01-18T01:45:34.410Z,15.90
2023-01-18T01:48:02.346Z,15.80
2023-01-18T01:50:38.306Z,12.67
2023-01-18T01:53:09.323Z,15.03
2023-01-18T01:55:41.138Z,14.40
2023-01-18T01:58:12.478Z,12.97
2023-01-18T02:00:40.781Z,11.20
2023-01-18T02:03:12.509Z,12.10
2023-01-18T02:05:47.748Z,15.20
2023-01-18T02:08:24.895Z,11.33
2023-01-18T02:10:55.679Z,14.13
2023-01-18T02:13:28.171Z,15.13
2023-01-18T02:16:05.946Z,14.03
2023-01-18T02:18:41.601Z,12.03
2023-01-18T02:21:16.805Z,13.33
2023-01-18T02:24:23.165Z,12.80
2023-01-18T02:27:00.672Z,12.97
2023-01-18T02:30:01.100Z,15.77
2023-01-18T02:32:45.303Z,14.80
2023-01-18T02:35:26.562Z,13.57
2023-01-18T02:38:08.299Z,14.27
2023-01-18T02:40:46.364Z,13.83
2023-01-18T02:43:35.708Z,14.50
2023-01-18T02:46:27.757Z,13.90
2023-01-18T02:48:58.037Z,12.40
2023-01-18T02:51:29.325Z,13.53
2023-01-18T02:54:01.920Z,15.80
2023-01-18T02:56:35.110Z,15.47
2023-01-18T02:59:10.260Z,15.57
2023-01-18T03:01:44.213Z,13.47
2023-01-18T03:04:21.762Z,14.63
2023-01-18T03:07:00.197Z,13.43
2023-01-18T03:09:40.712Z,13.43
2023-01-18T03:12:25.405Z,17.20
2023-01-18T03:15:08.437Z,16.07
2023-01-18T03:17:41.093Z,15.63
2023-01-18T03:20:15.050Z,14.50
2023-01-18T03:23:06.925Z,17.43
2023-01-18T03:25:37.807Z,15.50
2023-01-18T03:28:25.529Z,13.93
2023-01-18T03:31:14.591Z,15.33
2023-01-18T03:33:47.135Z,14.80
2023-01-18T03:36:25.313Z,17.53
2023-01-18T03:38:58.969Z,16.43
2023-01-18T03:41:39.998Z,16.50
2023-01-18T03:44:12.780Z,19.37
2023-01-18T03:46:46.459Z,16.57
2023-01-18T03:49:26.619Z,14.00
2023-01-18T03:52:17.115Z,15.50
2023-01-18T03:54:54.628Z,17.00
2023-01-18T03:57:28.045Z,16.40
2023-01-18T03:59:56.189Z,14.93
2023-01-18T04:02:32.433Z,16.13
2023-01-18T04:05:05.023Z,16.43
2023-01-18T04:07:40.565Z,14.57
2023-01-18T04:10:09.375Z,15.03
2023-01-18T04:12:38.931Z,14.50
2023-01-18T04:15:12.710Z,15.60
2023-01-18T04:17:47.650Z,15.30
2023-01-18T04:20:17.357Z,16.10
2023-01-18T04:22:52.737Z,14.40
2023-01-18T04:25:21.286Z,13.83
2023-01-18T04:27:49.152Z,14.93
2023-01-18T04:30:21.778Z,18.30
2023-01-18T04:32:56.544Z,15.17
2023-01-18T04:35:27.485Z,16.33
2023-01-18T04:38:01.002Z,16.80
2023-01-18T04:40:37.627Z,13.60
2023-01-18T04:43:11.344Z,16.20
2023-01-18T04:45:40.917Z,18.13
2023-01-18T04:48:14.263Z,13.80
2023-01-18T04:50:49.478Z,16.40
2023-01-18T04:53:19.506Z,15.33
2023-01-18T04:55:49.634Z,15.83
2023-01-18T04:58:21.924Z,17.03
2023-01-18T05:00:55.084Z,20.77
2023-01-18T05:03:30.827Z,19.90
2023-01-18T05:06:05.611Z,17.03
2023-01-18T05:08:40.795Z,18.20
2023-01-18T05:11:10.505Z,18.67
2023-01-18T05:13:44.268Z,20.07
2023-01-18T05:16:20.290Z,15.90
2023-01-18T05:18:50.643Z,18.17
2023-01-18T05:21:18.647Z,20.70
2023-01-18T05:23:47.889Z,18.80
2023-01-18T05:26:23.522Z,19.40
2023-01-18T05:28:58.147Z,19.87
2023-01-18T05:31:34.050Z,19.60
2023-01-18T05:34:05.913Z,16.40
2023-01-18T05:36:33.884Z,18.00
2023-01-18T05:39:05.714Z,19.63
2023-01-18T05:41:39.561Z,17.43
2023-01-18T05:44:07.441Z,20.00
2023-01-18T05:46:35.300Z,22.23
2023-01-18T05:49:08.890Z,18.20
2023-01-18T05:51:38.937Z,17.37
2023-01-18T05:54:09.813Z,19.50
2023-01-18T05:56:37.862Z,18.60
2023-01-18T05:59:08.596Z,23.03
2023-01-18T06:01:36.557Z,17.57
2023-01-18T06:04:06.063Z,19.03
2023-01-18T06:06:37.977Z,19.40
2023-01-18T06:09:14.037Z,18.73
2023-01-18T06:11:50.640Z,17.30
2023-01-18T06:14:18.578Z,18.97
2023-01-18T06:16:49.829Z,16.00
2023-01-18T06:19:22.369Z,17.60
2023-01-18T06:21:54.631Z,17.17
2023-01-18T06:24:26.639Z,21.43
2023-01-18T06:26:56.656Z,17.50
2023-01-18T06:29:26.709Z,17.37
2023-01-18T06:31:56.033Z,18.10
2023-01-18T06:34:30.490Z,18.37
2023-01-18T06:37:00.108Z,18.67
2023-01-18T06:39:36.030Z,18.97
2023-01-18T06:42:08.473Z,16.43
2023-01-18T06:44:36.386Z,14.40
2023-01-18T06:47:06.725Z,15.70
2023-01-18T06:49:38.412Z,17.93
2023-01-18T06:52:15.120Z,16.70
2023-01-18T06:54:44.736Z,16.10
2023-01-18T06:57:18.136Z,19.00
2023-01-18T06:59:46.137Z,20.10
2023-01-18T07:02:18.659Z,19.27
2023-01-18T07:04:46.563Z,20.30
2023-01-18T07:07:21.930Z,17.80
2023-01-18T07:09:51.308Z,21.53
2023-01-18T07:12:26.875Z,17.07
2023-01-18T07:14:54.830Z,20.57
2023-01-18T07:17:30.586Z,18.67
2023-01-18T07:20:00.517Z,17.20
2023-01-18T07:22:31.755Z,20.50
2023-01-18T07:25:05.327Z,16.63
2023-01-18T07:27:35.178Z,18.80
2023-01-18T07:30:09.153Z,17.93
2023-01-18T07:32:38.724Z,21.03
2023-01-18T07:35:07.337Z,19.00
2023-01-18T07:37:35.953Z,20.50
2023-01-18T07:40:19.286Z,18.93
2023-01-18T07:42:47.181Z,21.50
2023-01-18T07:45:16.527Z,19.63
2023-01-18T07:47:48.754Z,18.80
2023-01-18T07:50:17.342Z,18.93
2023-01-18T07:52:45.245Z,19.33
2023-01-18T07:55:19.203Z,19.20
2023-01-18T07:57:50.694Z,20.10
2023-01-18T08:00:20.883Z,20.47
2023-01-18T08:02:53.488Z,21.57
2023-01-18T08:05:27.986Z,17.13
2023-01-18T08:07:56.088Z,20.83
2023-01-18T08:10:26.557Z,19.23
2023-01-18T08:13:09.511Z,19.93
2023-01-18T08:15:39.785Z,20.07
2023-01-18T08:18:10.637Z,21.03
2023-01-18T08:20:38.690Z,24.30
2023-01-18T08:23:09.321Z,18.47
2023-01-18T08:25:41.211Z,21.40
2023-01-18T08:28:09.872Z,19.73
2023-01-18T08:30:42.906Z,18.30
2023-01-18T08:33:11.230Z,18.60
2023-01-18T08:35:48.672Z,18.93
2023-01-18T08:38:25.478Z,19.83
2023-01-18T08:40:57.779Z,19.17
2023-01-18T08:43:27.299Z,21.50
2023-01-18T08:46:09.821Z,18.40
2023-01-18T08:48:45.870Z,17.20
2023-01-18T08:51:18.061Z,18.97
2023-01-18T08:53:53.386Z,20.00
2023-01-18T08:56:22.682Z,19.20
2023-01-18T08:58:52.932Z,21.87
2023-01-18T09:01:23.479Z,22.70
2023-01-18T09:03:58.598Z,22.90
2023-01-18T09:06:32.196Z,22.80
2023-01-18T09:09:03.436Z,22.93
2023-01-18T09:11:34.336Z,21.00
2023-01-18T09:14:03.649Z,24.37
2023-01-18T09:16:38.962Z,22.10
2023-01-18T09:19:09.206Z,19.80
2023-01-18T09:21:40.736Z,21.27
2023-01-18T09:24:14.041Z,25.07
2023-01-18T09:26:50.990Z,21.50
2023-01-18T09:29:22.960Z,24.67
2023-01-18T09:31:55.913Z,23.60
2023-01-18T09:34:29.104Z,20.40
2023-01-18T09:37:03.331Z,18.57
2023-01-18T09:39:50.464Z,19.87
2023-01-18T09:42:26.056Z,19.77
2023-01-18T09:45:07.063Z,24.00
2023-01-18T09:47:44.233Z,19.47
2023-01-18T09:50:24.072Z,23.37
2023-01-18T09:53:00.158Z,21.20
2023-01-18T09:55:44.031Z,25.03
2023-01-18T09:58:32.285Z,23.20
2023-01-18T10:01:05.965Z,23.10
2023-01-18T10:03:43.604Z,20.70
2023-01-18T10:06:19.126Z,23.00
2023-01-18T10:08:53.792Z,22.80
2023-01-18T10:11:36.968Z,22.53
2023-01-18T10:14:17.756Z,19.60
2023-01-18T10:16:55.541Z,22.00
2023-01-18T10:19:29.331Z,21.80
2023-01-18T10:22:09.304Z,17.23
2023-01-18T10:24:46.948Z,19.47
2023-01-18T10:27:32.992Z,22.20
2023-01-18T10:30:37.993Z,18.63
2023-01-18T10:33:24.250Z,20.87
2023-01-18T10:35:56.676Z,22.27
2023-01-18T10:38:28.373Z,25.83
2023-01-18T10:40:58.944Z,19.93
2023-01-18T10:43:33.974Z,21.50
2023-01-18T10:46:19.833Z,22.80
2023-01-18T10:48:51.705Z,22.00
2023-01-18T10:51:35.011Z,19.90
2023-01-18T10:54:25.424Z,25.87
2023-01-18T10:57:09.142Z,19.17
2023-01-18T10:59:41.474Z,18.50
2023-01-18T11:02:29.423Z,18.53
2023-01-18T11:05:09.712Z,18.63
2023-01-18T11:07:42.641Z,15.87
2023-01-18T11:10:28.668Z,15.93
2023-01-18T11:13:03.432Z,16.67
2023-01-18T11:15:32.353Z,16.97
2023-01-18T11:18:14.519Z,16.67
2023-01-18T11:20:48.193Z,14.23
2023-01-18T11:23:26.495Z,14.53
2023-01-18T11:26:00.724Z,16.77
2023-01-18T11:28:37.446Z,15.63
2023-01-18T11:31:12.870Z,16.37
2023-01-18T11:33:55.240Z,17.47
2023-01-18T11:36:36.148Z,18.30
2023-01-18T11:39:27.924Z,14.63
2023-01-18T11:42:30.532Z,15.23
2023-01-18T11:45:13.180Z,13.30
2023-01-18T11:47:56.482Z,13.30
2023-01-18T11:50:36.845Z,14.47
2023-01-18T11:53:17.765Z,12.10
2023-01-18T11:55:57.938Z,13.47
2023-01-18T11:58:30.167Z,13.00
2023-01-18T12:01:17.073Z,12.70
2023-01-18T12:03:53.069Z,14.50
2023-01-18T12:06:42.311Z,14.63
2023-01-18T12:09:38.703Z,14.03
2023-01-18T12:12:26.399Z,15.40
2023-01-18T12:15:10.933Z,14.03
2023-01-18T12:18:07.794Z,15.03
2023-01-18T12:20:58.243Z,13.23
2023-01-18T12:23:55.686Z,12.83
2023-01-18T12:26:42.648Z,12.73
2023-01-18T12:29:50.420Z,13.10
2023-01-18T12:32:45.272Z,12.87
2023-01-18T12:35:41.226Z,14.40
2023-01-18T12:38:21.012Z,14.27
2023-01-18T12:41:26.826Z,14.80
2023-01-18T12:44:19.946Z,14.10
2023-01-18T12:47:07.309Z,13.60
2023-01-18T12:49:40.140Z,12.90
2023-01-18T12:52:22.227Z,11.27
2023-01-18T12:54:59.224Z,14.43
2023-01-18T12:57:30.682Z,12.00
2023-01-18T13:00:08.547Z,13.13
2023-01-18T13:02:45.489Z,12.00
2023-01-18T13:05:21.666Z,12.40
2023-01-18T13:07:53.195Z,14.23
2023-01-18T13:10:28.728Z,13.30
2023-01-18T13:13:01.042Z,10.60
2023-01-18T13:15:39.479Z,12.00
2023-01-18T13:18:17.791Z,11.03
2023-01-18T13:20:58.919Z,10.23
2023-01-18T13:23:36.715Z,12.70
2023-01-18T13:26:20.005Z,11.03
2023-01-18T13:29:06.569Z,12.80
2023-01-18T13:31:35.082Z,11.57
2023-01-18T13:34:08.006Z,11.30
2023-01-18T13:36:46.599Z,16.60
2023-01-18T13:39:19.683Z,10.67
2023-01-18T13:42:35.896Z,12.43
2023-01-18T13:45:21.722Z,11.67
2023-01-18T13:47:54.393Z,11.33
2023-01-18T13:50:45.972Z,10.53
2023-01-18T13:53:31.462Z,11.57
2023-01-18T13:56:37.595Z,13.07
2023-01-18T13:59:17.470Z,11.03
2023-01-18T14:01:50.554Z,12.17
2023-01-18T14:04:31.755Z,11.53
2023-01-18T14:07:07.928Z,10.63
2023-01-18T14:09:39.160Z,11.80
2023-01-18T14:12:10.932Z,10.17
2023-01-18T14:14:56.501Z,10.77
2023-01-18T14:17:26.594Z,10.10
2023-01-18T14:20:30.035Z,11.20
2023-01-18T14:23:13.701Z,10.50
2023-01-18T14:26:01.289Z,10.10
2023-01-18T14:28:36.566Z,10.10
2023-01-18T14:31:27.861Z,11.53
2023-01-18T14:34:02.457Z,10.30
2023-01-18T14:36:36.681Z,10.67
2023-01-18T14:39:09.625Z,11.43
2023-01-18T14:41:47.725Z,11.97
2023-01-18T14:44:19.982Z,11.83
2023-01-18T14:46:51.116Z,11.00
2023-01-18T14:49:29.758Z,12.80
2023-01-18T14:52:00.896Z,12.53
2023-01-18T14:54:30.883Z,11.13
2023-01-18T14:57:08.760Z,11.87
2023-01-18T14:59:36.962Z,10.37
2023-01-18T15:02:18.998Z,11.87
2023-01-18T15:04:57.242Z,13.90
2023-01-18T15:07:28.858Z,11.50
2023-01-18T15:10:07.585Z,10.13
2023-01-18T15:12:43.699Z,11.70
2023-01-18T15:15:25.411Z,12.43
2023-01-18T15:17:58.771Z,13.47
2023-01-18T15:20:32.215Z,12.53
2023-01-18T15:23:08.180Z,14.33
2023-01-18T15:25:36.297Z,10.77
2023-01-18T15:28:22.800Z,12.90
2023-01-18T15:30:52.741Z,13.23
2023-01-18T15:33:24.656Z,14.60
2023-01-18T15:35:58.921Z,13.03
2023-01-18T15:38:33.099Z,12.73
2023-01-18T15:41:20.045Z,12.63
2023-01-18T15:43:48.837Z,11.90
2023-01-18T15:46:20.204Z,12.30
2023-01-18T15:48:54.194Z,12.27
2023-01-18T15:51:43.498Z,11.40
2023-01-18T15:54:24.724Z,12.73
2023-01-18T15:56:56.864Z,14.87
2023-01-18T15:59:27.980Z,11.90
2023-01-18T16:02:17.348Z,11.40
2023-01-18T16:04:47.671Z,12.97
2023-01-18T16:07:43.263Z,13.07
2023-01-18T16:10:28.332Z,12.60
2023-01-18T16:13:02.015Z,12.00
2023-01-18T16:15:36.288Z,12.13
2023-01-18T16:18:07.915Z,15.00
2023-01-18T16:20:46.071Z,16.80
2023-01-18T16:23:21.368Z,14.73
2023-01-18T16:25:56.673Z,16.10
2023-01-18T16:28:32.453Z,13.57
2023-01-18T16:31:10.591Z,14.73
2023-01-18T16:33:40.585Z,13.77
2023-01-18T16:36:19.489Z,14.67
2023-01-18T16:38:48.719Z,16.07
2023-01-18T16:41:21.285Z,13.50
2023-01-18T16:43:55.845Z,16.93
2023-01-18T16:46:27.349Z,14.43
2023-01-18T16:48:59.002Z,15.40
2023-01-18T16:51:36.060Z,14.80
2023-01-18T16:54:13.778Z,17.07
2023-01-18T16:56:52.332Z,15.23
2023-01-18T16:59:22.595Z,15.90
2023-01-18T17:01:54.348Z,15.43
2023-01-18T17:04:27.263Z,14.83
2023-01-18T17:06:58.429Z,19.23
2023-01-18T17:09:32.471Z,16.20
2023-01-18T17:12:08.885Z,13.60
2023-01-18T17:14:40.412Z,14.93
2023-01-18T17:17:19.292Z,16.07
2023-01-18T17:19:51.464Z,14.73
2023-01-18T17:22:21.318Z,15.00
2023-01-18T17:24:55.317Z,15.97
2023-01-18T17:27:24.382Z,14.63
2023-01-18T17:29:52.227Z,13.73
2023-01-18T17:32:22.518Z,16.73
2023-01-18T17:34:55.098Z,14.10
2023-01-18T17:37:25.515Z,15.57
2023-01-18T17:40:12.023Z,14.90
2023-01-18T17:42:41.918Z,13.53
2023-01-18T17:45:16.403Z,14.23
2023-01-18T17:47:49.719Z,14.90
2023-01-18T17:50:25.332Z,14.73
2023-01-18T17:52:56.435Z,18.23
2023-01-18T17:55:34.598Z,16.73
2023-01-18T17:58:06.203Z,21.37
2023-01-18T18:00:34.135Z,15.90
2023-01-18T18:03:07.722Z,14.90
2023-01-18T18:05:43.343Z,14.00
2023-01-18T18:08:12.914Z,17.10
2023-01-18T18:10:44.583Z,15.67
2023-01-18T18:13:14.610Z,17.27
2023-01-18T18:15:48.540Z,14.20
2023-01-18T18:18:22.909Z,18.27
2023-01-18T18:20:52.963Z,15.50
2023-01-18T18:23:24.053Z,17.73
2023-01-18T18:25:57.077Z,21.00
2023-01-18T18:28:29.572Z,16.43
2023-01-18T18:31:00.220Z,15.90
2023-01-18T18:33:33.370Z,15.10
2023-01-18T18:36:04.401Z,16.20
2023-01-18T18:38:41.211Z,15.30
2023-01-18T18:41:15.345Z,15.90
2023-01-18T18:43:45.465Z,15.70
2023-01-18T18:46:16.958Z,17.20
2023-01-18T18:48:48.126Z,14.50
2023-01-18T18:51:26.076Z,17.83
2023-01-18T18:53:58.870Z,16.33
2023-01-18T18:56:28.379Z,16.23
2023-01-18T18:59:03.287Z,17.83
2023-01-18T19:01:35.829Z,15.50
2023-01-18T19:04:05.200Z,14.13
2023-01-18T19:06:39.147Z,16.80
2023-01-18T19:09:08.818Z,14.20
2023-01-18T19:11:50.713Z,17.50
2023-01-18T19:14:25.683Z,18.93
2023-01-18T19:16:53.623Z,15.60
2023-01-18T19:19:29.700Z,16.53
2023-01-18T19:21:59.737Z,16.30
2023-01-18T19:24:36.776Z,15.60
2023-01-18T19:27:10.118Z,16.37
2023-01-18T19:29:43.914Z,16.63
2023-01-18T19:32:15.436Z,18.50
2023-01-18T19:34:46.221Z,20.40
2023-01-18T19:37:17.015Z,15.73
2023-01-18T19:39:50.626Z,17.00
2023-01-18T19:42:19.891Z,18.27
2023-01-18T19:44:48.116Z,16.57
2023-01-18T19:47:22.332Z,17.80
2023-01-18T19:49:54.850Z,17.97
2023-01-18T19:52:29.913Z,17.20
2023-01-18T19:55:01.511Z,14.73
2023-01-18T19:57:31.273Z,16.93
2023-01-18T20:00:04.128Z,17.57
2023-01-18T20:02:37.989Z,17.20
2023-01-18T20:05:12.672Z,17.20
2023-01-18T20:07:42.617Z,16.03
2023-01-18T20:10:16.639Z,16.37
2023-01-18T20:12:51.642Z,18.10
2023-01-18T20:15:23.048Z,16.20
2023-01-18T20:17:53.719Z,16.70
2023-01-18T20:20:32.894Z,19.57
2023-01-18T20:23:04.518Z,18.83
2023-01-18T20:25:43.987Z,16.63
2023-01-18T20:28:18.754Z,14.27
2023-01-18T20:30:54.028Z,17.37
2023-01-18T20:33:24.190Z,16.60
2023-01-18T20:35:57.827Z,16.57
2023-01-18T20:38:29.335Z,17.13
2023-01-18T20:40:59.421Z,18.93
2023-01-18T20:43:34.081Z,17.60
2023-01-18T20:46:04.979Z,16.27
2023-01-18T20:48:37.391Z,16.73
2023-01-18T20:51:09.346Z,15.27
2023-01-18T20:53:38.953Z,16.80
2023-01-18T20:56:28.414Z,17.57
2023-01-18T20:59:05.784Z,16.83
2023-01-18T21:01:37.604Z,17.93
2023-01-18T21:04:11.203Z,16.23
2023-01-18T21:06:39.075Z,15.50
2023-01-18T21:09:09.427Z,18.43
2023-01-18T21:11:44.969Z,15.67
2023-01-18T21:14:16.274Z,17.50
2023-01-18T21:16:50.015Z,16.97
2023-01-18T21:19:25.662Z,15.60
2023-01-18T21:22:06.246Z,15.97
2023-01-18T21:24:34.249Z,15.80
2023-01-18T21:27:06.247Z,14.90
2023-01-18T21:29:39.745Z,16.77
2023-01-18T21:32:14.458Z,16.83
2023-01-18T21:34:51.277Z,14.50
2023-01-18T21:37:22.408Z,14.73
2023-01-18T21:39:53.555Z,16.17
2023-01-18T21:42:38.942Z,15.23
2023-01-18T21:45:28.342Z,17.40
2023-01-18T21:47:59.478Z,15.20
2023-01-18T21:50:45.364Z,16.67
2023-01-18T21:53:32.726Z,15.50
2023-01-18T21:56:06.876Z,15.93
2023-01-18T21:58:53.698Z,13.50
2023-01-18T22:01:33.918Z,15.43
2023-01-18T22:04:22.399Z,16.30
2023-01-18T22:06:54.240Z,16.50
2023-01-18T22:09:24.285Z,13.37
2023-01-18T22:11:53.272Z,16.20
2023-01-18T22:14:24.595Z,16.73
2023-01-18T22:17:01.542Z,13.87
2023-01-18T22:19:29.436Z,14.73
2023-01-18T22:21:59.098Z,16.73
2023-01-18T22:24:26.992Z,14.20
2023-01-18T22:27:02.163Z,15.10
2023-01-18T22:29:30.009Z,16.80
2023-01-18T22:32:06.337Z,17.17
2023-01-18T22:34:36.226Z,16.17
2023-01-18T22:37:06.500Z,13.77
2023-01-18T22:39:34.415Z,16.93
2023-01-18T22:42:04.867Z,17.70
2023-01-18T22:44:36.668Z,14.27
2023-01-18T22:47:13.113Z,19.37
2023-01-18T22:49:44.046Z,15.20
2023-01-18T22:52:16.887Z,16.03
2023-01-18T22:54:50.509Z,14.77
2023-01-18T22:57:19.951Z,16.77
2023-01-18T22:59:53.241Z,14.67
2023-01-18T23:02:26.383Z,16.20
2023-01-18T23:04:56.398Z,19.70
2023-01-18T23:07:28.610Z,17.90
2023-01-18T23:10:07.859Z,17.20
2023-01-18T23:12:39.914Z,17.50
2023-01-18T23:15:30.296Z,14.20
2023-01-18T23:17:59.939Z,18.60
2023-01-18T23:20:27.960Z,16.70
2023-01-18T23:23:12.659Z,15.67
2023-01-18T23:25:42.561Z,20.10
2023-01-18T23:28:36.255Z,17.13
2023-01-18T23:31:05.432Z,16.53
2023-01-18T23:33:37.515Z,21.00
2023-01-18T23:36:13.569Z,17.70
2023-01-18T23:38:59.214Z,16.23
2023-01-18T23:41:50.353Z,19.13
2023-01-18T23:44:35.752Z,16.23
2023-01-18T23:47:23.317Z,16.73
2023-01-18T23:50:13.710Z,18.23
2023-01-18T23:53:00.999Z,20.83
2023-01-18T23:55:28.915Z,18.50
2023-01-18T23:57:56.840Z,18.10
